Alhani — 5VBT5 — position and weather

sailwx.info

Track history (hours):
 
Tides and Currents Weather Stations Pressure Air Temp Water Temp Dewpoint Dewpoint Depression Visibility Wind Speed Wind Dir Waves Ship Positions

Alhani

Last reported at 2017-Nov-17 10:44 UTC. Time now 2017-Dec-11 07:42 UTC.
Position N 36°01' E 031°25'.
Warning: this ship's position is 23 days out of date.

Length 89 m; draft 7.1 m.

Type: Cargo ship. MMSI: 671302936.

Date/timePositionNaut miles runAvg speedWind from/ knotsBaromVisibWave heightAir tempDewpointWater temp
2017-Nov-17 10:44N 36°01' E 031°25'410.6
2017-Nov-17 10:19N 36°01' E 031°19'410.8
2017-Nov-17 09:59N 36°01' E 031°15'610.7
2017-Nov-17 09:25N 36°01' E 031°07'410.6
2017-Nov-17 09:00N 36°01' E 031°02'510.4
2017-Nov-17 08:30N 36°01' E 030°55'510.5
2017-Nov-17 07:59N 36°02' E 030°49'19 9.9
2017-Nov-17 06:02N 36°02' E 030°25'  
2017-Nov-11 22:11N 44°29' E 037°33'210.2
2017-Nov-11 21:57N 44°30' E 037°36'4 9.7
2017-Nov-11 21:30N 44°32' E 037°41'5 9.1
2017-Nov-11 21:00N 44°35' E 037°46'4 9.0
2017-Nov-11 20:31N 44°39' E 037°50'4 7.4
2017-Nov-11 20:00N 44°42' E 037°49'2 3.4
2017-Nov-11 19:30N 44°44' E 037°47'0 0.0
2017-Nov-11 19:00N 44°44' E 037°47'0 0.0
2017-Nov-11 18:27N 44°44' E 037°47'0 0.0
2017-Nov-11 18:00N 44°44' E 037°47'0 0.0
2017-Nov-11 17:30N 44°44' E 037°47'0 0.0
2017-Nov-11 17:00N 44°44' E 037°47'0 0.0
2017-Nov-11 16:24N 44°44' E 037°47'0 0.0
2017-Nov-11 16:00N 44°44' E 037°47'0 0.0
2017-Nov-11 15:30N 44°44' E 037°47'0 0.0
2017-Nov-11 15:00N 44°44' E 037°47'0 0.0
2017-Nov-11 14:30N 44°44' E 037°47'0 0.0
2017-Nov-11 13:59N 44°44' E 037°47'0 0.0
2017-Nov-11 13:29N 44°44' E 037°47'0 0.0
2017-Nov-11 12:59N 44°44' E 037°47'0 0.0
2017-Nov-11 12:29N 44°44' E 037°47'0 0.0
2017-Nov-11 11:59N 44°44' E 037°47'0 0.0
2017-Nov-11 11:29N 44°44' E 037°47'0 0.0
2017-Nov-11 10:59N 44°44' E 037°47'0 0.0
2017-Nov-11 10:29N 44°44' E 037°47'0 0.0
2017-Nov-11 09:59N 44°44' E 037°47'0 0.0
2017-Nov-11 09:29N 44°44' E 037°47'0 0.0
2017-Nov-11 08:56N 44°44' E 037°47'0 0.0
2017-Nov-11 08:29N 44°44' E 037°47'0 0.0
2017-Nov-11 07:59N 44°44' E 037°47'0 0.0
2017-Nov-11 07:29N 44°44' E 037°47'0 0.0
2017-Nov-11 06:59N 44°44' E 037°47'0 0.0
2017-Nov-11 06:26N 44°44' E 037°47'0 0.0
2017-Nov-11 05:59N 44°44' E 037°47'0 0.0
2017-Nov-11 05:29N 44°44' E 037°47'0 0.0
2017-Nov-11 04:17N 44°44' E 037°47'0 0.0
2017-Nov-11 03:59N 44°44' E 037°47'0 0.0
2017-Nov-11 03:29N 44°44' E 037°47'0 0.0
2017-Nov-11 02:59N 44°44' E 037°47'0 0.0
2017-Nov-11 02:29N 44°44' E 037°47'0 0.0
2017-Nov-11 01:59N 44°44' E 037°47'0 0.0
2017-Nov-11 01:26N 44°44' E 037°47'0 0.0
2017-Nov-11 00:59N 44°44' E 037°47'0 0.0
2017-Nov-11 00:29N 44°44' E 037°47'0 0.0
2017-Nov-10 23:59N 44°44' E 037°47'0 0.0
2017-Nov-10 23:29N 44°44' E 037°47'0 0.0
2017-Nov-10 22:59N 44°44' E 037°47'0 0.0
2017-Nov-10 22:29N 44°44' E 037°47'0 0.0
2017-Nov-10 21:59N 44°44' E 037°47'0 0.0
2017-Nov-10 21:26N 44°44' E 037°47'0 0.0
2017-Nov-10 20:59N 44°44' E 037°47'0 0.0
2017-Nov-10 20:29N 44°44' E 037°47'0 0.0
2017-Nov-10 19:59N 44°44' E 037°47'0 0.0
2017-Nov-10 19:29N 44°44' E 037°47'0 0.0
2017-Nov-10 18:59N 44°44' E 037°47'0 0.0
2017-Nov-10 18:29N 44°44' E 037°47'0 0.0
2017-Nov-10 17:59N 44°44' E 037°47'0 0.0
2017-Nov-10 17:29N 44°44' E 037°47'0 0.0
2017-Nov-10 16:50N 44°44' E 037°47'0 0.0
2017-Nov-10 16:29N 44°44' E 037°47'0 0.0
2017-Nov-10 15:56N 44°44' E 037°47'0 0.0
2017-Nov-10 15:29N 44°44' E 037°47'0 0.0
2017-Nov-10 14:59N 44°44' E 037°47'0 0.0
2017-Nov-10 14:29N 44°44' E 037°47'0 0.0
2017-Nov-10 13:59N 44°44' E 037°47'0 0.0
2017-Nov-10 13:29N 44°44' E 037°47'0 0.0
2017-Nov-10 12:59N 44°44' E 037°47'0 0.0
2017-Nov-10 12:29N 44°44' E 037°47'0 0.0
2017-Nov-10 11:59N 44°44' E 037°47'0 0.0
2017-Nov-10 11:29N 44°44' E 037°47'0 0.0
2017-Nov-10 10:59N 44°44' E 037°47'0 0.0
2017-Nov-10 10:23N 44°44' E 037°47'0 0.0
2017-Nov-10 09:59N 44°44' E 037°47'0 0.0
2017-Nov-10 09:29N 44°44' E 037°47'0 0.0
2017-Nov-10 08:59N 44°44' E 037°47'0 0.0
2017-Nov-10 08:29N 44°44' E 037°47'0 0.0
2017-Nov-10 07:59N 44°44' E 037°47'0 0.0
2017-Nov-10 07:29N 44°44' E 037°47'0 0.0
2017-Nov-10 06:58N 44°44' E 037°47'0 0.0
2017-Nov-10 06:28N 44°44' E 037°47'0 0.0
2017-Nov-10 05:58N 44°44' E 037°47'0 0.0
2017-Nov-10 05:28N 44°44' E 037°47'0 0.0
2017-Nov-10 04:58N 44°44' E 037°47'0 0.0
2017-Nov-10 04:28N 44°44' E 037°47'0 0.0
2017-Nov-10 03:58N 44°44' E 037°47'0 0.0
2017-Nov-10 03:28N 44°44' E 037°47'0 0.0
2017-Nov-10 02:58N 44°44' E 037°47'0 0.0
2017-Nov-10 02:28N 44°44' E 037°47'0 0.0
2017-Nov-10 01:58N 44°44' E 037°47'0 0.0
2017-Nov-10 01:28N 44°44' E 037°47'0 0.0
2017-Nov-10 00:58N 44°44' E 037°47'0 0.0
2017-Nov-10 00:28N 44°44' E 037°47'0 0.0
2017-Nov-09 23:58N 44°44' E 037°47'0 0.0
2017-Nov-09 23:28N 44°44' E 037°47'0 0.0
2017-Nov-09 22:58N 44°44' E 037°47'0 0.0
2017-Nov-09 22:28N 44°44' E 037°47'0 0.0
2017-Nov-09 21:58N 44°44' E 037°47'0 0.0
2017-Nov-09 21:28N 44°44' E 037°47'0 0.0
2017-Nov-09 20:58N 44°44' E 037°47'0 0.0
2017-Nov-09 20:28N 44°44' E 037°47'0 0.0
2017-Nov-09 19:58N 44°44' E 037°47'0 0.0
2017-Nov-09 19:28N 44°44' E 037°47'0 0.0
2017-Nov-09 18:58N 44°44' E 037°47'0 0.0
2017-Nov-09 18:28N 44°44' E 037°47'0 0.0
2017-Nov-09 17:58N 44°44' E 037°47'0 0.0
2017-Nov-09 17:28N 44°44' E 037°47'0 0.0
2017-Nov-09 16:58N 44°44' E 037°47'0 0.0
2017-Nov-09 16:28N 44°44' E 037°47'0 0.0
2017-Nov-09 15:58N 44°44' E 037°47'0 0.0
2017-Nov-09 15:28N 44°44' E 037°47'0 0.0
2017-Nov-09 14:58N 44°44' E 037°47'0 0.0
2017-Nov-09 14:28N 44°44' E 037°47'0 0.0
2017-Nov-09 13:58N 44°44' E 037°47'0 0.0
2017-Nov-09 13:28N 44°44' E 037°47'0 0.0
2017-Nov-09 12:58N 44°44' E 037°47'0 0.0
2017-Nov-09 12:28N 44°44' E 037°47'0 0.0
2017-Nov-09 11:58N 44°44' E 037°47'0 0.0
2017-Nov-09 11:25N 44°44' E 037°47'0 0.0
2017-Nov-09 10:58N 44°44' E 037°47'0 0.0
2017-Nov-09 10:28N 44°44' E 037°47'0 0.0
2017-Nov-09 09:58N 44°44' E 037°47'0 0.0
2017-Nov-09 09:28N 44°44' E 037°47'0 0.0
2017-Nov-09 08:58N 44°44' E 037°47'0 0.0
2017-Nov-09 08:28N 44°44' E 037°47'0 0.0
2017-Nov-09 07:58N 44°44' E 037°47'0 0.0
2017-Nov-09 07:28N 44°44' E 037°47'0 0.0
2017-Nov-09 06:58N 44°44' E 037°47'0 0.0
2017-Nov-09 06:28N 44°44' E 037°47'0 0.0
2017-Nov-09 05:58N 44°44' E 037°47'0 0.0
2017-Nov-09 05:28N 44°44' E 037°47'0 0.0
2017-Nov-09 04:58N 44°44' E 037°47'0 0.0
2017-Nov-09 04:28N 44°44' E 037°47'0 0.0
2017-Nov-09 03:58N 44°44' E 037°47'0 0.0
2017-Nov-09 03:28N 44°44' E 037°47'0 0.0
2017-Nov-09 02:55N 44°44' E 037°47'0 0.0
2017-Nov-09 02:25N 44°44' E 037°47'0 0.0
2017-Nov-09 01:55N 44°44' E 037°47'0 0.0
2017-Nov-09 01:25N 44°44' E 037°47'0 0.0
2017-Nov-09 00:58N 44°44' E 037°47'0 0.0
2017-Nov-09 00:31N 44°44' E 037°47'0 0.0
2017-Nov-09 00:01N 44°44' E 037°47'0 0.0
2017-Nov-08 23:30N 44°44' E 037°47'0 0.0
2017-Nov-08 23:00N 44°44' E 037°47'0 0.0
2017-Nov-08 22:30N 44°44' E 037°47'0 0.0
2017-Nov-08 22:00N 44°44' E 037°47'0 0.0
2017-Nov-08 21:30N 44°44' E 037°47'0 0.0
2017-Nov-08 21:00N 44°44' E 037°47'0 0.0
2017-Nov-08 20:30N 44°44' E 037°47'0 0.0
2017-Nov-08 20:00N 44°44' E 037°47'0 0.0
2017-Nov-08 19:30N 44°44' E 037°47'0 0.0
2017-Nov-08 19:00N 44°44' E 037°47'0 0.0
2017-Nov-08 18:30N 44°44' E 037°47'0 0.0
2017-Nov-08 18:00N 44°44' E 037°47'0 0.0
2017-Nov-08 17:30N 44°44' E 037°47'0 0.0
2017-Nov-08 17:00N 44°44' E 037°47'0 0.0
2017-Nov-08 16:30N 44°44' E 037°47'0 0.0
2017-Nov-08 16:00N 44°44' E 037°47'0 0.0
2017-Nov-08 15:30N 44°44' E 037°47'0 0.0
2017-Nov-08 15:00N 44°44' E 037°47'0 0.0
2017-Nov-08 14:30N 44°44' E 037°47'0 0.0
2017-Nov-08 14:00N 44°44' E 037°47'0 0.0
2017-Nov-08 13:30N 44°44' E 037°47'0 0.0
2017-Nov-08 13:00N 44°44' E 037°47'0 0.0
2017-Nov-08 12:30N 44°44' E 037°47'0 0.0
2017-Nov-08 12:00N 44°44' E 037°47'0 0.0
2017-Nov-08 11:30N 44°44' E 037°47'0 0.0
2017-Nov-08 11:00N 44°44' E 037°47'0 0.0
2017-Nov-08 10:30N 44°44' E 037°47'0 0.0
2017-Nov-08 10:00N 44°44' E 037°47'0 0.0
2017-Nov-08 09:30N 44°44' E 037°47'0 0.0
2017-Nov-08 09:00N 44°44' E 037°47'0 0.0
2017-Nov-08 08:30N 44°44' E 037°47'0 0.0
2017-Nov-08 08:00N 44°44' E 037°47'0 0.0
2017-Nov-08 07:30N 44°44' E 037°47'0 0.0
2017-Nov-08 07:00N 44°44' E 037°47'0 0.0
2017-Nov-08 06:30N 44°44' E 037°47'0 0.0
2017-Nov-08 06:00N 44°44' E 037°47'0 0.0
2017-Nov-08 05:27N 44°44' E 037°47'0 0.0
2017-Nov-08 05:00N 44°44' E 037°47'0 0.0
2017-Nov-08 04:30N 44°44' E 037°47'0 0.0
2017-Nov-08 04:00N 44°44' E 037°47'0 0.0
2017-Nov-08 03:30N 44°44' E 037°47'0 0.0
2017-Nov-08 03:00N 44°44' E 037°47'0 0.0
2017-Nov-08 02:30N 44°44' E 037°47'0 0.0
2017-Nov-08 02:00N 44°44' E 037°47'0 0.0
2017-Nov-08 01:30N 44°44' E 037°47'0 0.0
2017-Nov-08 01:00N 44°44' E 037°47'0 0.0
2017-Nov-08 00:30N 44°44' E 037°47'0 0.0
2017-Nov-08 00:00N 44°44' E 037°47'0 0.0
2017-Nov-07 23:30N 44°44' E 037°47'0 0.0
2017-Nov-07 23:00N 44°44' E 037°47'0 0.0
2017-Nov-07 22:30N 44°44' E 037°47'0 0.0
2017-Nov-07 22:00N 44°44' E 037°47'0 0.0
2017-Nov-07 21:30N 44°44' E 037°47'0 0.0
2017-Nov-07 21:00N 44°44' E 037°47'0 0.0
2017-Nov-07 20:30N 44°44' E 037°47'0 0.0
2017-Nov-07 20:00N 44°44' E 037°47'0 0.0
2017-Nov-07 19:30N 44°44' E 037°47'0 0.0
2017-Nov-07 19:00N 44°44' E 037°47'0 0.0
2017-Nov-07 18:30N 44°44' E 037°47'0 0.0
2017-Nov-07 18:00N 44°44' E 037°47'0 0.0
2017-Nov-07 17:00N 44°44' E 037°47'0 0.0
2017-Nov-07 16:29N 44°44' E 037°47'0 0.0
2017-Nov-07 15:59N 44°44' E 037°47'0 0.0
2017-Nov-07 15:23N 44°44' E 037°47'0 0.0
2017-Nov-07 14:59N 44°44' E 037°47'0 0.0
2017-Nov-07 14:26N 44°44' E 037°47'0 0.0
2017-Nov-07 13:59N 44°44' E 037°47'0 0.0
2017-Nov-07 13:29N 44°44' E 037°47'0 0.0
2017-Nov-07 12:59N 44°44' E 037°47'0 0.0
2017-Nov-07 12:29N 44°44' E 037°47'0 0.0
2017-Nov-07 11:59N 44°44' E 037°47'0 0.0
2017-Nov-07 11:23N 44°44' E 037°47'0 0.0
2017-Nov-07 10:56N 44°44' E 037°47'  
Track history (hours):
 
Tides and Currents Weather Stations Pressure Air Temp Water Temp Dewpoint Dewpoint Depression Visibility Wind Speed Wind Dir Waves Ship Positions

Alhani

Last reported at 2017-Nov-17 10:44 UTC. Time now 2017-Dec-11 07:42 UTC.
Position N 36°01' E 031°25'.
Warning: this ship's position is 23 days out of date.

Length 89 m; draft 7.1 m.

Type: Cargo ship. MMSI: 671302936.

Date/timePositionNaut miles runAvg speedWind from/ knotsBaromVisibWave heightAir tempDewpointWater temp
2017-Nov-17 10:44N 36°01' E 031°25'410.6
2017-Nov-17 10:19N 36°01' E 031°19'410.8
2017-Nov-17 09:59N 36°01' E 031°15'610.7
2017-Nov-17 09:25N 36°01' E 031°07'410.6
2017-Nov-17 09:00N 36°01' E 031°02'510.4
2017-Nov-17 08:30N 36°01' E 030°55'510.5
2017-Nov-17 07:59N 36°02' E 030°49'19 9.9
2017-Nov-17 06:02N 36°02' E 030°25'  
2017-Nov-11 22:11N 44°29' E 037°33'210.2
2017-Nov-11 21:57N 44°30' E 037°36'4 9.7
2017-Nov-11 21:30N 44°32' E 037°41'5 9.1
2017-Nov-11 21:00N 44°35' E 037°46'4 9.0
2017-Nov-11 20:31N 44°39' E 037°50'4 7.4
2017-Nov-11 20:00N 44°42' E 037°49'2 3.4
2017-Nov-11 19:30N 44°44' E 037°47'0 0.0
2017-Nov-11 19:00N 44°44' E 037°47'0 0.0
2017-Nov-11 18:27N 44°44' E 037°47'0 0.0
2017-Nov-11 18:00N 44°44' E 037°47'0 0.0
2017-Nov-11 17:30N 44°44' E 037°47'0 0.0
2017-Nov-11 17:00N 44°44' E 037°47'0 0.0
2017-Nov-11 16:24N 44°44' E 037°47'0 0.0
2017-Nov-11 16:00N 44°44' E 037°47'0 0.0
2017-Nov-11 15:30N 44°44' E 037°47'0 0.0
2017-Nov-11 15:00N 44°44' E 037°47'0 0.0
2017-Nov-11 14:30N 44°44' E 037°47'0 0.0
2017-Nov-11 13:59N 44°44' E 037°47'0 0.0
2017-Nov-11 13:29N 44°44' E 037°47'0 0.0
2017-Nov-11 12:59N 44°44' E 037°47'0 0.0
2017-Nov-11 12:29N 44°44' E 037°47'0 0.0
2017-Nov-11 11:59N 44°44' E 037°47'0 0.0
2017-Nov-11 11:29N 44°44' E 037°47'0 0.0
2017-Nov-11 10:59N 44°44' E 037°47'0 0.0
2017-Nov-11 10:29N 44°44' E 037°47'0 0.0
2017-Nov-11 09:59N 44°44' E 037°47'0 0.0
2017-Nov-11 09:29N 44°44' E 037°47'0 0.0
2017-Nov-11 08:56N 44°44' E 037°47'0 0.0
2017-Nov-11 08:29N 44°44' E 037°47'0 0.0
2017-Nov-11 07:59N 44°44' E 037°47'0 0.0
2017-Nov-11 07:29N 44°44' E 037°47'0 0.0
2017-Nov-11 06:59N 44°44' E 037°47'0 0.0
2017-Nov-11 06:26N 44°44' E 037°47'0 0.0
2017-Nov-11 05:59N 44°44' E 037°47'0 0.0
2017-Nov-11 05:29N 44°44' E 037°47'0 0.0
2017-Nov-11 04:17N 44°44' E 037°47'0 0.0
2017-Nov-11 03:59N 44°44' E 037°47'0 0.0
2017-Nov-11 03:29N 44°44' E 037°47'0 0.0
2017-Nov-11 02:59N 44°44' E 037°47'0 0.0
2017-Nov-11 02:29N 44°44' E 037°47'0 0.0
2017-Nov-11 01:59N 44°44' E 037°47'0 0.0
2017-Nov-11 01:26N 44°44' E 037°47'0 0.0
2017-Nov-11 00:59N 44°44' E 037°47'0 0.0
2017-Nov-11 00:29N 44°44' E 037°47'0 0.0
2017-Nov-10 23:59N 44°44' E 037°47'0 0.0
2017-Nov-10 23:29N 44°44' E 037°47'0 0.0
2017-Nov-10 22:59N 44°44' E 037°47'0 0.0
2017-Nov-10 22:29N 44°44' E 037°47'0 0.0
2017-Nov-10 21:59N 44°44' E 037°47'0 0.0
2017-Nov-10 21:26N 44°44' E 037°47'0 0.0
2017-Nov-10 20:59N 44°44' E 037°47'0 0.0
2017-Nov-10 20:29N 44°44' E 037°47'0 0.0
2017-Nov-10 19:59N 44°44' E 037°47'0 0.0
2017-Nov-10 19:29N 44°44' E 037°47'0 0.0
2017-Nov-10 18:59N 44°44' E 037°47'0 0.0
2017-Nov-10 18:29N 44°44' E 037°47'0 0.0
2017-Nov-10 17:59N 44°44' E 037°47'0 0.0
2017-Nov-10 17:29N 44°44' E 037°47'0 0.0
2017-Nov-10 16:50N 44°44' E 037°47'0 0.0
2017-Nov-10 16:29N 44°44' E 037°47'0 0.0
2017-Nov-10 15:56N 44°44' E 037°47'0 0.0
2017-Nov-10 15:29N 44°44' E 037°47'0 0.0
2017-Nov-10 14:59N 44°44' E 037°47'0 0.0
2017-Nov-10 14:29N 44°44' E 037°47'0 0.0
2017-Nov-10 13:59N 44°44' E 037°47'0 0.0
2017-Nov-10 13:29N 44°44' E 037°47'0 0.0
2017-Nov-10 12:59N 44°44' E 037°47'0 0.0
2017-Nov-10 12:29N 44°44' E 037°47'0 0.0
2017-Nov-10 11:59N 44°44' E 037°47'0 0.0
2017-Nov-10 11:29N 44°44' E 037°47'0 0.0
2017-Nov-10 10:59N 44°44' E 037°47'0 0.0
2017-Nov-10 10:23N 44°44' E 037°47'0 0.0
2017-Nov-10 09:59N 44°44' E 037°47'0 0.0
2017-Nov-10 09:29N 44°44' E 037°47'0 0.0
2017-Nov-10 08:59N 44°44' E 037°47'0 0.0
2017-Nov-10 08:29N 44°44' E 037°47'0 0.0
2017-Nov-10 07:59N 44°44' E 037°47'0 0.0
2017-Nov-10 07:29N 44°44' E 037°47'0 0.0
2017-Nov-10 06:58N 44°44' E 037°47'0 0.0
2017-Nov-10 06:28N 44°44' E 037°47'0 0.0
2017-Nov-10 05:58N 44°44' E 037°47'0 0.0
2017-Nov-10 05:28N 44°44' E 037°47'0 0.0
2017-Nov-10 04:58N 44°44' E 037°47'0 0.0
2017-Nov-10 04:28N 44°44' E 037°47'0 0.0
2017-Nov-10 03:58N 44°44' E 037°47'0 0.0
2017-Nov-10 03:28N 44°44' E 037°47'0 0.0
2017-Nov-10 02:58N 44°44' E 037°47'0 0.0
2017-Nov-10 02:28N 44°44' E 037°47'0 0.0
2017-Nov-10 01:58N 44°44' E 037°47'0 0.0
2017-Nov-10 01:28N 44°44' E 037°47'0 0.0
2017-Nov-10 00:58N 44°44' E 037°47'0 0.0
2017-Nov-10 00:28N 44°44' E 037°47'0 0.0
2017-Nov-09 23:58N 44°44' E 037°47'0 0.0
2017-Nov-09 23:28N 44°44' E 037°47'0 0.0
2017-Nov-09 22:58N 44°44' E 037°47'0 0.0
2017-Nov-09 22:28N 44°44' E 037°47'0 0.0
2017-Nov-09 21:58N 44°44' E 037°47'0 0.0
2017-Nov-09 21:28N 44°44' E 037°47'0 0.0
2017-Nov-09 20:58N 44°44' E 037°47'0 0.0
2017-Nov-09 20:28N 44°44' E 037°47'0 0.0
2017-Nov-09 19:58N 44°44' E 037°47'0 0.0
2017-Nov-09 19:28N 44°44' E 037°47'0 0.0
2017-Nov-09 18:58N 44°44' E 037°47'0 0.0
2017-Nov-09 18:28N 44°44' E 037°47'0 0.0
2017-Nov-09 17:58N 44°44' E 037°47'0 0.0
2017-Nov-09 17:28N 44°44' E 037°47'0 0.0
2017-Nov-09 16:58N 44°44' E 037°47'0 0.0
2017-Nov-09 16:28N 44°44' E 037°47'0 0.0
2017-Nov-09 15:58N 44°44' E 037°47'0 0.0
2017-Nov-09 15:28N 44°44' E 037°47'0 0.0
2017-Nov-09 14:58N 44°44' E 037°47'0 0.0
2017-Nov-09 14:28N 44°44' E 037°47'0 0.0
2017-Nov-09 13:58N 44°44' E 037°47'0 0.0
2017-Nov-09 13:28N 44°44' E 037°47'0 0.0
2017-Nov-09 12:58N 44°44' E 037°47'0 0.0
2017-Nov-09 12:28N 44°44' E 037°47'0 0.0
2017-Nov-09 11:58N 44°44' E 037°47'0 0.0
2017-Nov-09 11:25N 44°44' E 037°47'0 0.0
2017-Nov-09 10:58N 44°44' E 037°47'0 0.0
2017-Nov-09 10:28N 44°44' E 037°47'0 0.0
2017-Nov-09 09:58N 44°44' E 037°47'0 0.0
2017-Nov-09 09:28N 44°44' E 037°47'0 0.0
2017-Nov-09 08:58N 44°44' E 037°47'0 0.0
2017-Nov-09 08:28N 44°44' E 037°47'0 0.0
2017-Nov-09 07:58N 44°44' E 037°47'0 0.0
2017-Nov-09 07:28N 44°44' E 037°47'0 0.0
2017-Nov-09 06:58N 44°44' E 037°47'0 0.0
2017-Nov-09 06:28N 44°44' E 037°47'0 0.0
2017-Nov-09 05:58N 44°44' E 037°47'0 0.0
2017-Nov-09 05:28N 44°44' E 037°47'0 0.0
2017-Nov-09 04:58N 44°44' E 037°47'0 0.0
2017-Nov-09 04:28N 44°44' E 037°47'0 0.0
2017-Nov-09 03:58N 44°44' E 037°47'0 0.0
2017-Nov-09 03:28N 44°44' E 037°47'0 0.0
2017-Nov-09 02:55N 44°44' E 037°47'0 0.0
2017-Nov-09 02:25N 44°44' E 037°47'0 0.0
2017-Nov-09 01:55N 44°44' E 037°47'0 0.0
2017-Nov-09 01:25N 44°44' E 037°47'0 0.0
2017-Nov-09 00:58N 44°44' E 037°47'0 0.0
2017-Nov-09 00:31N 44°44' E 037°47'0 0.0
2017-Nov-09 00:01N 44°44' E 037°47'0 0.0
2017-Nov-08 23:30N 44°44' E 037°47'0 0.0
2017-Nov-08 23:00N 44°44' E 037°47'0 0.0
2017-Nov-08 22:30N 44°44' E 037°47'0 0.0
2017-Nov-08 22:00N 44°44' E 037°47'0 0.0
2017-Nov-08 21:30N 44°44' E 037°47'0 0.0
2017-Nov-08 21:00N 44°44' E 037°47'0 0.0
2017-Nov-08 20:30N 44°44' E 037°47'0 0.0
2017-Nov-08 20:00N 44°44' E 037°47'0 0.0
2017-Nov-08 19:30N 44°44' E 037°47'0 0.0
2017-Nov-08 19:00N 44°44' E 037°47'0 0.0
2017-Nov-08 18:30N 44°44' E 037°47'0 0.0
2017-Nov-08 18:00N 44°44' E 037°47'0 0.0
2017-Nov-08 17:30N 44°44' E 037°47'0 0.0
2017-Nov-08 17:00N 44°44' E 037°47'0 0.0
2017-Nov-08 16:30N 44°44' E 037°47'0 0.0
2017-Nov-08 16:00N 44°44' E 037°47'0 0.0
2017-Nov-08 15:30N 44°44' E 037°47'0 0.0
2017-Nov-08 15:00N 44°44' E 037°47'0 0.0
2017-Nov-08 14:30N 44°44' E 037°47'0 0.0
2017-Nov-08 14:00N 44°44' E 037°47'0 0.0
2017-Nov-08 13:30N 44°44' E 037°47'0 0.0
2017-Nov-08 13:00N 44°44' E 037°47'0 0.0
2017-Nov-08 12:30N 44°44' E 037°47'0 0.0
2017-Nov-08 12:00N 44°44' E 037°47'0 0.0
2017-Nov-08 11:30N 44°44' E 037°47'0 0.0
2017-Nov-08 11:00N 44°44' E 037°47'0 0.0
2017-Nov-08 10:30N 44°44' E 037°47'0 0.0
2017-Nov-08 10:00N 44°44' E 037°47'0 0.0
2017-Nov-08 09:30N 44°44' E 037°47'0 0.0
2017-Nov-08 09:00N 44°44' E 037°47'0 0.0
2017-Nov-08 08:30N 44°44' E 037°47'0 0.0
2017-Nov-08 08:00N 44°44' E 037°47'0 0.0
2017-Nov-08 07:30N 44°44' E 037°47'0 0.0
2017-Nov-08 07:00N 44°44' E 037°47'0 0.0
2017-Nov-08 06:30N 44°44' E 037°47'0 0.0
2017-Nov-08 06:00N 44°44' E 037°47'0 0.0
2017-Nov-08 05:27N 44°44' E 037°47'0 0.0
2017-Nov-08 05:00N 44°44' E 037°47'0 0.0
2017-Nov-08 04:30N 44°44' E 037°47'0 0.0
2017-Nov-08 04:00N 44°44' E 037°47'0 0.0
2017-Nov-08 03:30N 44°44' E 037°47'0 0.0
2017-Nov-08 03:00N 44°44' E 037°47'0 0.0
2017-Nov-08 02:30N 44°44' E 037°47'0 0.0
2017-Nov-08 02:00N 44°44' E 037°47'0 0.0
2017-Nov-08 01:30N 44°44' E 037°47'0 0.0
2017-Nov-08 01:00N 44°44' E 037°47'0 0.0
2017-Nov-08 00:30N 44°44' E 037°47'0 0.0
2017-Nov-08 00:00N 44°44' E 037°47'0 0.0
2017-Nov-07 23:30N 44°44' E 037°47'0 0.0
2017-Nov-07 23:00N 44°44' E 037°47'0 0.0
2017-Nov-07 22:30N 44°44' E 037°47'0 0.0
2017-Nov-07 22:00N 44°44' E 037°47'0 0.0
2017-Nov-07 21:30N 44°44' E 037°47'0 0.0
2017-Nov-07 21:00N 44°44' E 037°47'0 0.0
2017-Nov-07 20:30N 44°44' E 037°47'0 0.0
2017-Nov-07 20:00N 44°44' E 037°47'0 0.0
2017-Nov-07 19:30N 44°44' E 037°47'0 0.0
2017-Nov-07 19:00N 44°44' E 037°47'0 0.0
2017-Nov-07 18:30N 44°44' E 037°47'0 0.0
2017-Nov-07 18:00N 44°44' E 037°47'0 0.0
2017-Nov-07 17:00N 44°44' E 037°47'0 0.0
2017-Nov-07 16:29N 44°44' E 037°47'0 0.0
2017-Nov-07 15:59N 44°44' E 037°47'0 0.0
2017-Nov-07 15:23N 44°44' E 037°47'0 0.0
2017-Nov-07 14:59N 44°44' E 037°47'0 0.0
2017-Nov-07 14:26N 44°44' E 037°47'0 0.0
2017-Nov-07 13:59N 44°44' E 037°47'0 0.0
2017-Nov-07 13:29N 44°44' E 037°47'0 0.0
2017-Nov-07 12:59N 44°44' E 037°47'0 0.0
2017-Nov-07 12:29N 44°44' E 037°47'0 0.0
2017-Nov-07 11:59N 44°44' E 037°47'0 0.0
2017-Nov-07 11:23N 44°44' E 037°47'0 0.0
2017-Nov-07 10:56N 44°44' E 037°47'  

Dump ship's entire track history